<?xml version="1.0" encoding="UTF-8" standalone="no" ?>
<gpx xmlns="http://www.topografix.com/GPX/1/1" xmlns:xsi="http://www.w3.org/2001/XMLSchema-instance" xsi:schemaLocation="http://www.topografix.com/GPX/1/1 http://www.topografix.com/GPX/1/1/gpx.xsd" version="1.1" creator="VisuGPX - https://www.visugpx.com">
  <metadata>
    <name>tour rochefort-St Martin</name>
  </metadata>
  <trk>
    <name><![CDATA[10438172-ajout rochefort]]></name>
    <trkseg>
      <trkpt lat="45.64687" lon="4.57222">
        <ele>809</ele>
        <time>2019-08-28T06:31:33Z</time>
      </trkpt>
      <trkpt lat="45.64628" lon="4.57062">
        <ele>806</ele>
        <time>2019-08-28T06:32:03Z</time>
      </trkpt>
      <trkpt lat="45.64604" lon="4.57017">
        <ele>804</ele>
        <time>2019-08-28T06:32:12Z</time>
      </trkpt>
      <trkpt lat="45.6458" lon="4.5695">
        <ele>800</ele>
        <time>2019-08-28T06:32:24Z</time>
      </trkpt>
      <trkpt lat="45.64573" lon="4.56944">
        <ele>800</ele>
        <time>2019-08-28T06:32:26Z</time>
      </trkpt>
      <trkpt lat="45.64556" lon="4.56875">
        <ele>793</ele>
        <time>2019-08-28T06:32:38Z</time>
      </trkpt>
      <trkpt lat="45.64555" lon="4.56833">
        <ele>789</ele>
        <time>2019-08-28T06:32:45Z</time>
      </trkpt>
      <trkpt lat="45.64536" lon="4.56751">
        <ele>779</ele>
        <time>2019-08-28T06:32:59Z</time>
      </trkpt>
      <trkpt lat="45.64535" lon="4.56724">
        <ele>776</ele>
        <time>2019-08-28T06:33:03Z</time>
      </trkpt>
      <trkpt lat="45.64535" lon="4.56725">
        <ele>776</ele>
        <time>2019-08-28T06:33:03Z</time>
      </trkpt>
      <trkpt lat="45.64548" lon="4.56614">
        <ele>765</ele>
        <time>2019-08-28T06:33:22Z</time>
      </trkpt>
      <trkpt lat="45.64547" lon="4.56614">
        <ele>765</ele>
        <time>2019-08-28T06:33:22Z</time>
      </trkpt>
      <trkpt lat="45.64544" lon="4.5656">
        <ele>759</ele>
        <time>2019-08-28T06:33:31Z</time>
      </trkpt>
      <trkpt lat="45.64523" lon="4.56328">
        <ele>740</ele>
        <time>2019-08-28T06:34:09Z</time>
      </trkpt>
      <trkpt lat="45.64526" lon="4.56245">
        <ele>738</ele>
        <time>2019-08-28T06:34:23Z</time>
      </trkpt>
      <trkpt lat="45.64537" lon="4.56205">
        <ele>737</ele>
        <time>2019-08-28T06:34:30Z</time>
      </trkpt>
      <trkpt lat="45.64535" lon="4.56142">
        <ele>735</ele>
        <time>2019-08-28T06:34:40Z</time>
      </trkpt>
      <trkpt lat="45.64516" lon="4.5604">
        <ele>731</ele>
        <time>2019-08-28T06:34:57Z</time>
      </trkpt>
      <trkpt lat="45.64507" lon="4.5597">
        <ele>731</ele>
        <time>2019-08-28T06:35:09Z</time>
      </trkpt>
      <trkpt lat="45.64497" lon="4.5594">
        <ele>731</ele>
        <time>2019-08-28T06:35:14Z</time>
      </trkpt>
      <trkpt lat="45.6448" lon="4.55902">
        <ele>732</ele>
        <time>2019-08-28T06:35:22Z</time>
      </trkpt>
      <trkpt lat="45.64459" lon="4.55886">
        <ele>733</ele>
        <time>2019-08-28T06:35:27Z</time>
      </trkpt>
      <trkpt lat="45.64413" lon="4.55861">
        <ele>733</ele>
        <time>2019-08-28T06:35:39Z</time>
      </trkpt>
      <trkpt lat="45.64421" lon="4.55861">
        <ele>733</ele>
        <time>2019-08-28T06:35:41Z</time>
      </trkpt>
      <trkpt lat="45.64413" lon="4.55861">
        <ele>733</ele>
        <time>2019-08-28T06:35:42Z</time>
      </trkpt>
      <trkpt lat="45.64381" lon="4.55832">
        <ele>734</ele>
        <time>2019-08-28T06:35:51Z</time>
      </trkpt>
      <trkpt lat="45.64352" lon="4.55801">
        <ele>735</ele>
        <time>2019-08-28T06:36:00Z</time>
      </trkpt>
      <trkpt lat="45.64328" lon="4.55762">
        <ele>737</ele>
        <time>2019-08-28T06:36:08Z</time>
      </trkpt>
      <trkpt lat="45.64314" lon="4.55726">
        <ele>739</ele>
        <time>2019-08-28T06:36:15Z</time>
      </trkpt>
      <trkpt lat="45.64308" lon="4.55705">
        <ele>741</ele>
        <time>2019-08-28T06:36:19Z</time>
      </trkpt>
      <trkpt lat="45.64309" lon="4.55696">
        <ele>742</ele>
        <time>2019-08-28T06:36:20Z</time>
      </trkpt>
      <trkpt lat="45.64323" lon="4.55697">
        <ele>743</ele>
        <time>2019-08-28T06:36:23Z</time>
      </trkpt>
      <trkpt lat="45.64336" lon="4.55695">
        <ele>744</ele>
        <time>2019-08-28T06:36:26Z</time>
      </trkpt>
      <trkpt lat="45.64379" lon="4.55672">
        <ele>747</ele>
        <time>2019-08-28T06:36:37Z</time>
      </trkpt>
      <trkpt lat="45.64396" lon="4.55657">
        <ele>747</ele>
        <time>2019-08-28T06:36:42Z</time>
      </trkpt>
      <trkpt lat="45.64474" lon="4.55616">
        <ele>749</ele>
        <time>2019-08-28T06:37:01Z</time>
      </trkpt>
      <trkpt lat="45.64521" lon="4.556">
        <ele>750</ele>
        <time>2019-08-28T06:37:13Z</time>
      </trkpt>
      <trkpt lat="45.64536" lon="4.55602">
        <ele>750</ele>
        <time>2019-08-28T06:37:16Z</time>
      </trkpt>
      <trkpt lat="45.64569" lon="4.556">
        <ele>752</ele>
        <time>2019-08-28T06:37:24Z</time>
      </trkpt>
      <trkpt lat="45.6457" lon="4.55582">
        <ele>752</ele>
        <time>2019-08-28T06:37:27Z</time>
      </trkpt>
      <trkpt lat="45.64592" lon="4.55403">
        <ele>748</ele>
        <time>2019-08-28T06:37:56Z</time>
      </trkpt>
      <trkpt lat="45.64592" lon="4.55346">
        <ele>748</ele>
        <time>2019-08-28T06:38:06Z</time>
      </trkpt>
      <trkpt lat="45.64588" lon="4.55305">
        <ele>749</ele>
        <time>2019-08-28T06:38:12Z</time>
      </trkpt>
      <trkpt lat="45.64559" lon="4.55265">
        <ele>748</ele>
        <time>2019-08-28T06:38:22Z</time>
      </trkpt>
      <trkpt lat="45.64507" lon="4.55204">
        <ele>744</ele>
        <time>2019-08-28T06:38:38Z</time>
      </trkpt>
      <trkpt lat="45.64498" lon="4.55185">
        <ele>743</ele>
        <time>2019-08-28T06:38:41Z</time>
      </trkpt>
      <trkpt lat="45.64496" lon="4.55091">
        <ele>742</ele>
        <time>2019-08-28T06:38:57Z</time>
      </trkpt>
      <trkpt lat="45.64498" lon="4.55066">
        <ele>742</ele>
        <time>2019-08-28T06:39:01Z</time>
      </trkpt>
      <trkpt lat="45.645" lon="4.55054">
        <ele>742</ele>
        <time>2019-08-28T06:39:03Z</time>
      </trkpt>
      <trkpt lat="45.64508" lon="4.55038">
        <ele>741</ele>
        <time>2019-08-28T06:39:06Z</time>
      </trkpt>
      <trkpt lat="45.64516" lon="4.55016">
        <ele>740</ele>
        <time>2019-08-28T06:39:10Z</time>
      </trkpt>
      <trkpt lat="45.64517" lon="4.54969">
        <ele>738</ele>
        <time>2019-08-28T06:39:18Z</time>
      </trkpt>
      <trkpt lat="45.64523" lon="4.549">
        <ele>735</ele>
        <time>2019-08-28T06:39:29Z</time>
      </trkpt>
      <trkpt lat="45.64517" lon="4.54851">
        <ele>733</ele>
        <time>2019-08-28T06:39:37Z</time>
      </trkpt>
      <trkpt lat="45.64519" lon="4.54804">
        <ele>732</ele>
        <time>2019-08-28T06:39:45Z</time>
      </trkpt>
      <trkpt lat="45.64517" lon="4.54787">
        <ele>731</ele>
        <time>2019-08-28T06:39:48Z</time>
      </trkpt>
      <trkpt lat="45.64507" lon="4.5475">
        <ele>730</ele>
        <time>2019-08-28T06:39:54Z</time>
      </trkpt>
      <trkpt lat="45.64504" lon="4.54726">
        <ele>729</ele>
        <time>2019-08-28T06:39:58Z</time>
      </trkpt>
      <trkpt lat="45.64504" lon="4.54652">
        <ele>729</ele>
        <time>2019-08-28T06:40:10Z</time>
      </trkpt>
      <trkpt lat="45.64503" lon="4.54643">
        <ele>729</ele>
        <time>2019-08-28T06:40:12Z</time>
      </trkpt>
      <trkpt lat="45.64507" lon="4.54485">
        <ele>724</ele>
        <time>2019-08-28T06:40:38Z</time>
      </trkpt>
      <trkpt lat="45.64482" lon="4.54451">
        <ele>716</ele>
        <time>2019-08-28T06:40:46Z</time>
      </trkpt>
      <trkpt lat="45.64451" lon="4.54467">
        <ele>709</ele>
        <time>2019-08-28T06:40:53Z</time>
      </trkpt>
      <trkpt lat="45.64398" lon="4.54497">
        <ele>699</ele>
        <time>2019-08-28T06:41:07Z</time>
      </trkpt>
      <trkpt lat="45.64382" lon="4.54458">
        <ele>691</ele>
        <time>2019-08-28T06:41:14Z</time>
      </trkpt>
      <trkpt lat="45.64427" lon="4.54335">
        <ele>690</ele>
        <time>2019-08-28T06:41:37Z</time>
      </trkpt>
      <trkpt lat="45.64428" lon="4.54304">
        <ele>688</ele>
        <time>2019-08-28T06:41:42Z</time>
      </trkpt>
      <trkpt lat="45.64427" lon="4.54285">
        <ele>686</ele>
        <time>2019-08-28T06:41:45Z</time>
      </trkpt>
      <trkpt lat="45.6442" lon="4.54266">
        <ele>682</ele>
        <time>2019-08-28T06:41:48Z</time>
      </trkpt>
      <trkpt lat="45.64402" lon="4.54224">
        <ele>676</ele>
        <time>2019-08-28T06:41:56Z</time>
      </trkpt>
      <trkpt lat="45.64371" lon="4.54177">
        <ele>668</ele>
        <time>2019-08-28T06:42:07Z</time>
      </trkpt>
      <trkpt lat="45.64368" lon="4.54167">
        <ele>667</ele>
        <time>2019-08-28T06:42:09Z</time>
      </trkpt>
      <trkpt lat="45.64367" lon="4.54099">
        <ele>671</ele>
        <time>2019-08-28T06:42:20Z</time>
      </trkpt>
      <trkpt lat="45.6437" lon="4.54015">
        <ele>672</ele>
        <time>2019-08-28T06:42:34Z</time>
      </trkpt>
      <trkpt lat="45.64365" lon="4.53996">
        <ele>670</ele>
        <time>2019-08-28T06:42:37Z</time>
      </trkpt>
      <trkpt lat="45.64358" lon="4.53982">
        <ele>667</ele>
        <time>2019-08-28T06:42:40Z</time>
      </trkpt>
      <trkpt lat="45.64351" lon="4.53962">
        <ele>664</ele>
        <time>2019-08-28T06:42:43Z</time>
      </trkpt>
      <trkpt lat="45.64347" lon="4.53941">
        <ele>663</ele>
        <time>2019-08-28T06:42:47Z</time>
      </trkpt>
      <trkpt lat="45.64336" lon="4.53915">
        <ele>659</ele>
        <time>2019-08-28T06:42:52Z</time>
      </trkpt>
      <trkpt lat="45.64334" lon="4.53886">
        <ele>657</ele>
        <time>2019-08-28T06:42:57Z</time>
      </trkpt>
      <trkpt lat="45.64334" lon="4.53847">
        <ele>656</ele>
        <time>2019-08-28T06:43:03Z</time>
      </trkpt>
      <trkpt lat="45.64338" lon="4.53801">
        <ele>653</ele>
        <time>2019-08-28T06:43:11Z</time>
      </trkpt>
      <trkpt lat="45.64353" lon="4.53754">
        <ele>651</ele>
        <time>2019-08-28T06:43:19Z</time>
      </trkpt>
      <trkpt lat="45.64354" lon="4.53741">
        <ele>650</ele>
        <time>2019-08-28T06:43:21Z</time>
      </trkpt>
      <trkpt lat="45.64364" lon="4.53699">
        <ele>645</ele>
        <time>2019-08-28T06:43:28Z</time>
      </trkpt>
      <trkpt lat="45.64378" lon="4.53659">
        <ele>639</ele>
        <time>2019-08-28T06:43:36Z</time>
      </trkpt>
      <trkpt lat="45.64384" lon="4.53648">
        <ele>638</ele>
        <time>2019-08-28T06:43:38Z</time>
      </trkpt>
      <trkpt lat="45.6439" lon="4.53645">
        <ele>637</ele>
        <time>2019-08-28T06:43:39Z</time>
      </trkpt>
      <trkpt lat="45.64431" lon="4.53649">
        <ele>637</ele>
        <time>2019-08-28T06:43:49Z</time>
      </trkpt>
      <trkpt lat="45.64546" lon="4.53704">
        <ele>636</ele>
        <time>2019-08-28T06:44:17Z</time>
      </trkpt>
      <trkpt lat="45.64581" lon="4.53732">
        <ele>636</ele>
        <time>2019-08-28T06:44:27Z</time>
      </trkpt>
      <trkpt lat="45.64589" lon="4.53756">
        <ele>638</ele>
        <time>2019-08-28T06:44:31Z</time>
      </trkpt>
      <trkpt lat="45.64637" lon="4.53822">
        <ele>642</ele>
        <time>2019-08-28T06:44:47Z</time>
      </trkpt>
      <trkpt lat="45.64643" lon="4.53849">
        <ele>644</ele>
        <time>2019-08-28T06:44:51Z</time>
      </trkpt>
      <trkpt lat="45.64653" lon="4.53872">
        <ele>644</ele>
        <time>2019-08-28T06:44:56Z</time>
      </trkpt>
      <trkpt lat="45.64663" lon="4.53885">
        <ele>643</ele>
        <time>2019-08-28T06:44:59Z</time>
      </trkpt>
      <trkpt lat="45.64653" lon="4.53872">
        <ele>644</ele>
        <time>2019-08-28T06:45:02Z</time>
      </trkpt>
      <trkpt lat="45.64653" lon="4.53895">
        <ele>646</ele>
        <time>2019-08-28T06:45:06Z</time>
      </trkpt>
      <trkpt lat="45.64684" lon="4.54069">
        <ele>657</ele>
        <time>2019-08-28T06:45:35Z</time>
      </trkpt>
      <trkpt lat="45.64699" lon="4.54104">
        <ele>660</ele>
        <time>2019-08-28T06:45:42Z</time>
      </trkpt>
      <trkpt lat="45.647" lon="4.54137">
        <ele>666</ele>
        <time>2019-08-28T06:45:47Z</time>
      </trkpt>
      <trkpt lat="45.64711" lon="4.5417">
        <ele>670</ele>
        <time>2019-08-28T06:45:53Z</time>
      </trkpt>
      <trkpt lat="45.64719" lon="4.54218">
        <ele>676</ele>
        <time>2019-08-28T06:46:01Z</time>
      </trkpt>
      <trkpt lat="45.64767" lon="4.54289">
        <ele>675</ele>
        <time>2019-08-28T06:46:17Z</time>
      </trkpt>
      <trkpt lat="45.64847" lon="4.54516">
        <ele>681</ele>
        <time>2019-08-28T06:46:59Z</time>
      </trkpt>
      <trkpt lat="45.64886" lon="4.5467">
        <ele>688</ele>
        <time>2019-08-28T06:47:25Z</time>
      </trkpt>
      <trkpt lat="45.64879" lon="4.54695">
        <ele>690</ele>
        <time>2019-08-28T06:47:30Z</time>
      </trkpt>
      <trkpt lat="45.64878" lon="4.54726">
        <ele>692</ele>
        <time>2019-08-28T06:47:35Z</time>
      </trkpt>
      <trkpt lat="45.6488" lon="4.54739">
        <ele>693</ele>
        <time>2019-08-28T06:47:37Z</time>
      </trkpt>
      <trkpt lat="45.64884" lon="4.54761">
        <ele>695</ele>
        <time>2019-08-28T06:47:41Z</time>
      </trkpt>
      <trkpt lat="45.64889" lon="4.54773">
        <ele>695</ele>
        <time>2019-08-28T06:47:43Z</time>
      </trkpt>
      <trkpt lat="45.64911" lon="4.54807">
        <ele>697</ele>
        <time>2019-08-28T06:47:51Z</time>
      </trkpt>
      <trkpt lat="45.64919" lon="4.54824">
        <ele>698</ele>
        <time>2019-08-28T06:47:54Z</time>
      </trkpt>
      <trkpt lat="45.64932" lon="4.54897">
        <ele>705</ele>
        <time>2019-08-28T06:48:06Z</time>
      </trkpt>
      <trkpt lat="45.64932" lon="4.5493">
        <ele>709</ele>
        <time>2019-08-28T06:48:12Z</time>
      </trkpt>
      <trkpt lat="45.64921" lon="4.54982">
        <ele>714</ele>
        <time>2019-08-28T06:48:21Z</time>
      </trkpt>
      <trkpt lat="45.64918" lon="4.5501">
        <ele>717</ele>
        <time>2019-08-28T06:48:25Z</time>
      </trkpt>
      <trkpt lat="45.64918" lon="4.55038">
        <ele>720</ele>
        <time>2019-08-28T06:48:30Z</time>
      </trkpt>
      <trkpt lat="45.64922" lon="4.5505">
        <ele>722</ele>
        <time>2019-08-28T06:48:32Z</time>
      </trkpt>
      <trkpt lat="45.64942" lon="4.55069">
        <ele>724</ele>
        <time>2019-08-28T06:48:38Z</time>
      </trkpt>
      <trkpt lat="45.64949" lon="4.55077">
        <ele>725</ele>
        <time>2019-08-28T06:48:40Z</time>
      </trkpt>
      <trkpt lat="45.64967" lon="4.55122">
        <ele>729</ele>
        <time>2019-08-28T06:48:48Z</time>
      </trkpt>
      <trkpt lat="45.64977" lon="4.55162">
        <ele>732</ele>
        <time>2019-08-28T06:48:55Z</time>
      </trkpt>
      <trkpt lat="45.64978" lon="4.55173">
        <ele>733</ele>
        <time>2019-08-28T06:48:57Z</time>
      </trkpt>
      <trkpt lat="45.64976" lon="4.55177">
        <ele>734</ele>
        <time>2019-08-28T06:48:58Z</time>
      </trkpt>
      <trkpt lat="45.64973" lon="4.55174">
        <ele>733</ele>
        <time>2019-08-28T06:48:58Z</time>
      </trkpt>
      <trkpt lat="45.64976" lon="4.55177">
        <ele>734</ele>
        <time>2019-08-28T06:48:59Z</time>
      </trkpt>
      <trkpt lat="45.64978" lon="4.55173">
        <ele>733</ele>
        <time>2019-08-28T06:49:00Z</time>
      </trkpt>
      <trkpt lat="45.65046" lon="4.55109">
        <ele>726</ele>
        <time>2019-08-28T06:49:19Z</time>
      </trkpt>
      <trkpt lat="45.65152" lon="4.55039">
        <ele>718</ele>
        <time>2019-08-28T06:49:46Z</time>
      </trkpt>
      <trkpt lat="45.65187" lon="4.55007">
        <ele>717</ele>
        <time>2019-08-28T06:49:56Z</time>
      </trkpt>
      <trkpt lat="45.65249" lon="4.54932">
        <ele>709</ele>
        <time>2019-08-28T06:50:15Z</time>
      </trkpt>
      <trkpt lat="45.65294" lon="4.54889">
        <ele>703</ele>
        <time>2019-08-28T06:50:28Z</time>
      </trkpt>
      <trkpt lat="45.65327" lon="4.54867">
        <ele>700</ele>
        <time>2019-08-28T06:50:36Z</time>
      </trkpt>
      <trkpt lat="45.6536" lon="4.54858">
        <ele>695</ele>
        <time>2019-08-28T06:50:44Z</time>
      </trkpt>
      <trkpt lat="45.65393" lon="4.54843">
        <ele>690</ele>
        <time>2019-08-28T06:50:52Z</time>
      </trkpt>
      <trkpt lat="45.65453" lon="4.54796">
        <ele>680</ele>
        <time>2019-08-28T06:51:08Z</time>
      </trkpt>
      <trkpt lat="45.65484" lon="4.54799">
        <ele>676</ele>
        <time>2019-08-28T06:51:15Z</time>
      </trkpt>
      <trkpt lat="45.65529" lon="4.54775">
        <ele>669</ele>
        <time>2019-08-28T06:51:27Z</time>
      </trkpt>
      <trkpt lat="45.65529" lon="4.54789">
        <ele>669</ele>
        <time>2019-08-28T06:51:29Z</time>
      </trkpt>
      <trkpt lat="45.65515" lon="4.54835">
        <ele>672</ele>
        <time>2019-08-28T06:51:37Z</time>
      </trkpt>
      <trkpt lat="45.65517" lon="4.54852">
        <ele>673</ele>
        <time>2019-08-28T06:51:40Z</time>
      </trkpt>
      <trkpt lat="45.65534" lon="4.54875">
        <ele>671</ele>
        <time>2019-08-28T06:51:45Z</time>
      </trkpt>
      <trkpt lat="45.65549" lon="4.5495">
        <ele>672</ele>
        <time>2019-08-28T06:51:58Z</time>
      </trkpt>
      <trkpt lat="45.65558" lon="4.55026">
        <ele>673</ele>
        <time>2019-08-28T06:52:11Z</time>
      </trkpt>
      <trkpt lat="45.65575" lon="4.55122">
        <ele>672</ele>
        <time>2019-08-28T06:52:27Z</time>
      </trkpt>
      <trkpt lat="45.6559" lon="4.55162">
        <ele>672</ele>
        <time>2019-08-28T06:52:34Z</time>
      </trkpt>
      <trkpt lat="45.65598" lon="4.55198">
        <ele>674</ele>
        <time>2019-08-28T06:52:40Z</time>
      </trkpt>
      <trkpt lat="45.65608" lon="4.5528">
        <ele>680</ele>
        <time>2019-08-28T06:52:54Z</time>
      </trkpt>
      <trkpt lat="45.65617" lon="4.55307">
        <ele>681</ele>
        <time>2019-08-28T06:52:59Z</time>
      </trkpt>
      <trkpt lat="45.65618" lon="4.55318">
        <ele>681</ele>
        <time>2019-08-28T06:53:01Z</time>
      </trkpt>
      <trkpt lat="45.65615" lon="4.55314">
        <ele>681</ele>
        <time>2019-08-28T06:53:02Z</time>
      </trkpt>
      <trkpt lat="45.65659" lon="4.55381">
        <ele>682</ele>
        <time>2019-08-28T06:53:17Z</time>
      </trkpt>
      <trkpt lat="45.65683" lon="4.55448">
        <ele>686</ele>
        <time>2019-08-28T06:53:29Z</time>
      </trkpt>
      <trkpt lat="45.65708" lon="4.55493">
        <ele>687</ele>
        <time>2019-08-28T06:53:38Z</time>
      </trkpt>
      <trkpt lat="45.65716" lon="4.55501">
        <ele>687</ele>
        <time>2019-08-28T06:53:41Z</time>
      </trkpt>
      <trkpt lat="45.65723" lon="4.55502">
        <ele>687</ele>
        <time>2019-08-28T06:53:42Z</time>
      </trkpt>
      <trkpt lat="45.65737" lon="4.55499">
        <ele>685</ele>
        <time>2019-08-28T06:53:46Z</time>
      </trkpt>
      <trkpt lat="45.65774" lon="4.55486">
        <ele>686</ele>
        <time>2019-08-28T06:53:54Z</time>
      </trkpt>
      <trkpt lat="45.6578" lon="4.5551">
        <ele>688</ele>
        <time>2019-08-28T06:53:59Z</time>
      </trkpt>
      <trkpt lat="45.65784" lon="4.55539">
        <ele>690</ele>
        <time>2019-08-28T06:54:03Z</time>
      </trkpt>
      <trkpt lat="45.65785" lon="4.55573">
        <ele>691</ele>
        <time>2019-08-28T06:54:09Z</time>
      </trkpt>
      <trkpt lat="45.6578" lon="4.55602">
        <ele>692</ele>
        <time>2019-08-28T06:54:14Z</time>
      </trkpt>
      <trkpt lat="45.65775" lon="4.55611">
        <ele>692</ele>
        <time>2019-08-28T06:54:16Z</time>
      </trkpt>
      <trkpt lat="45.65776" lon="4.55621">
        <ele>693</ele>
        <time>2019-08-28T06:54:17Z</time>
      </trkpt>
      <trkpt lat="45.65778" lon="4.55625">
        <ele>693</ele>
        <time>2019-08-28T06:54:18Z</time>
      </trkpt>
      <trkpt lat="45.65781" lon="4.55627">
        <ele>693</ele>
        <time>2019-08-28T06:54:19Z</time>
      </trkpt>
      <trkpt lat="45.65786" lon="4.55628">
        <ele>694</ele>
        <time>2019-08-28T06:54:20Z</time>
      </trkpt>
      <trkpt lat="45.65792" lon="4.55622">
        <ele>694</ele>
        <time>2019-08-28T06:54:22Z</time>
      </trkpt>
      <trkpt lat="45.65797" lon="4.55622">
        <ele>694</ele>
        <time>2019-08-28T06:54:23Z</time>
      </trkpt>
      <trkpt lat="45.65809" lon="4.55627">
        <ele>696</ele>
        <time>2019-08-28T06:54:26Z</time>
      </trkpt>
      <trkpt lat="45.65842" lon="4.55674">
        <ele>700</ele>
        <time>2019-08-28T06:54:37Z</time>
      </trkpt>
      <trkpt lat="45.65885" lon="4.55712">
        <ele>704</ele>
        <time>2019-08-28T06:54:49Z</time>
      </trkpt>
      <trkpt lat="45.65906" lon="4.55725">
        <ele>707</ele>
        <time>2019-08-28T06:54:54Z</time>
      </trkpt>
      <trkpt lat="45.65904" lon="4.55718">
        <ele>706</ele>
        <time>2019-08-28T06:54:55Z</time>
      </trkpt>
      <trkpt lat="45.65908" lon="4.55746">
        <ele>709</ele>
        <time>2019-08-28T06:55:00Z</time>
      </trkpt>
      <trkpt lat="45.65925" lon="4.55818">
        <ele>716</ele>
        <time>2019-08-28T06:55:12Z</time>
      </trkpt>
      <trkpt lat="45.6594" lon="4.55866">
        <ele>721</ele>
        <time>2019-08-28T06:55:21Z</time>
      </trkpt>
      <trkpt lat="45.65956" lon="4.55903">
        <ele>725</ele>
        <time>2019-08-28T06:55:28Z</time>
      </trkpt>
      <trkpt lat="45.65973" lon="4.55936">
        <ele>729</ele>
        <time>2019-08-28T06:55:35Z</time>
      </trkpt>
      <trkpt lat="45.6598" lon="4.55945">
        <ele>730</ele>
        <time>2019-08-28T06:55:37Z</time>
      </trkpt>
      <trkpt lat="45.65975" lon="4.55955">
        <ele>730</ele>
        <time>2019-08-28T06:55:39Z</time>
      </trkpt>
      <trkpt lat="45.65976" lon="4.55971">
        <ele>731</ele>
        <time>2019-08-28T06:55:41Z</time>
      </trkpt>
      <trkpt lat="45.6598" lon="4.55989">
        <ele>732</ele>
        <time>2019-08-28T06:55:45Z</time>
      </trkpt>
      <trkpt lat="45.65991" lon="4.55997">
        <ele>733</ele>
        <time>2019-08-28T06:55:47Z</time>
      </trkpt>
      <trkpt lat="45.66" lon="4.5596">
        <ele>733</ele>
        <time>2019-08-28T06:55:54Z</time>
      </trkpt>
      <trkpt lat="45.66007" lon="4.55947">
        <ele>732</ele>
        <time>2019-08-28T06:55:57Z</time>
      </trkpt>
      <trkpt lat="45.66019" lon="4.5594">
        <ele>731</ele>
        <time>2019-08-28T06:56:00Z</time>
      </trkpt>
      <trkpt lat="45.66039" lon="4.55941">
        <ele>729</ele>
        <time>2019-08-28T06:56:04Z</time>
      </trkpt>
      <trkpt lat="45.66102" lon="4.55987">
        <ele>728</ele>
        <time>2019-08-28T06:56:21Z</time>
      </trkpt>
      <trkpt lat="45.66092" lon="4.56004">
        <ele>730</ele>
        <time>2019-08-28T06:56:24Z</time>
      </trkpt>
      <trkpt lat="45.66102" lon="4.55987">
        <ele>728</ele>
        <time>2019-08-28T06:56:28Z</time>
      </trkpt>
      <trkpt lat="45.66156" lon="4.5603">
        <ele>726</ele>
        <time>2019-08-28T06:56:42Z</time>
      </trkpt>
      <trkpt lat="45.66178" lon="4.56044">
        <ele>726</ele>
        <time>2019-08-28T06:56:48Z</time>
      </trkpt>
      <trkpt lat="45.66182" lon="4.56057">
        <ele>727</ele>
        <time>2019-08-28T06:56:50Z</time>
      </trkpt>
      <trkpt lat="45.6624" lon="4.56134">
        <ele>730</ele>
        <time>2019-08-28T06:57:09Z</time>
      </trkpt>
      <trkpt lat="45.66239" lon="4.56131">
        <ele>730</ele>
        <time>2019-08-28T06:57:09Z</time>
      </trkpt>
      <trkpt lat="45.66239" lon="4.56147">
        <ele>730</ele>
        <time>2019-08-28T06:57:12Z</time>
      </trkpt>
      <trkpt lat="45.66261" lon="4.56201">
        <ele>733</ele>
        <time>2019-08-28T06:57:22Z</time>
      </trkpt>
      <trkpt lat="45.66295" lon="4.56269">
        <ele>736</ele>
        <time>2019-08-28T06:57:36Z</time>
      </trkpt>
      <trkpt lat="45.66301" lon="4.56287">
        <ele>736</ele>
        <time>2019-08-28T06:57:39Z</time>
      </trkpt>
      <trkpt lat="45.66319" lon="4.56294">
        <ele>736</ele>
        <time>2019-08-28T06:57:43Z</time>
      </trkpt>
      <trkpt lat="45.66347" lon="4.56323">
        <ele>737</ele>
        <time>2019-08-28T06:57:52Z</time>
      </trkpt>
      <trkpt lat="45.66349" lon="4.56314">
        <ele>737</ele>
        <time>2019-08-28T06:57:53Z</time>
      </trkpt>
    </trkseg>
  </trk>
</gpx>